Portada
METAR-TAF:

METAR-TAF

Aeropuertos :

Aeropuerto MidAmerica

Belleville, Illinois, Estados Unidos

latitud: 38-33N, longitud: 089-51W, altitud: 140 m

Observación

El informe se hizo hace 2 horas y 42 minutos, a las 04:56 UTC
Viento calma
Temperatura 23°C
Humedad 100%
Presión 1014 hPa
Visibilidad: 16.1 km
Cielo despejado

METAR: KBLV 060456Z AUTO 00000KT 10SM CLR 23/23 A2995 RMK AO2 SLP141 T02310229 $

Hora: 02:38 (07:38 UTC)

Pronóstico

El informe se hizo hace 7 horas y 38 minutos, a las 00:00 UTC
Pronóstico válido del 06 a las 00 UTC al 07 a las 06 UTC
Viento 6 kt del norte
Visibilidad 10 km o más
Escasas nubes a una altura de 3000 ft
Evolucionando progresivamente
del 07 a las 02 UTC al 07 a las 03 UTC
Viento 9 kt del este
Visibilidad 10 km o más
Cielo nuboso a una altura de 3500 ft

TAF: KBLV 060000Z 0600/0706 35006KT 9999 FEW030 QNH2987INS BECMG 0702/0703 08009KT 9999 BKN035 QNH2994INS TX33/0620Z TN21/0611Z

Observaciones y pronósticos meteorológicos de más de 4000 aeropuertos (mensajes METAR y TAF).

Los puntos amarillos y rojos representan las estaciones disponibles.

Ponga el ratón en el punto deseado para ver el nombre de la estación.

Haga clic para ver las observaciones y los pronósticos meteorológicos.

Para cambiar el mapa : haga clic en los botones verdes con una cruz de color negro para hacer un zoom, en el botón verde con un guión para alejar o en las flechas verdes para mapas adyacentes.


METAR-TAF: